createdAt,value
2017-09-02T00:00:00.245Z,15.70
2017-09-02T00:02:29.945Z,15.60
2017-09-02T00:04:59.619Z,15.50
2017-09-02T00:07:29.301Z,15.50
2017-09-02T00:09:59.261Z,15.50
2017-09-02T00:12:28.966Z,15.50
2017-09-02T00:14:58.636Z,15.50
2017-09-02T00:17:28.325Z,15.40
2017-09-02T00:19:57.797Z,15.40
2017-09-02T00:22:27.524Z,15.50
2017-09-02T00:24:57.197Z,15.40
2017-09-02T00:27:26.891Z,15.40
2017-09-02T00:29:56.589Z,15.40
2017-09-02T00:32:26.290Z,15.40
2017-09-02T00:34:55.992Z,15.30
2017-09-02T00:37:27.165Z,15.30
2017-09-02T00:39:56.273Z,15.30
2017-09-02T00:42:25.775Z,15.30
2017-09-02T00:44:55.095Z,15.30
2017-09-02T00:47:24.774Z,15.30
2017-09-02T00:49:54.244Z,15.30
2017-09-02T00:52:23.587Z,15.30
2017-09-02T00:54:53.271Z,15.30
2017-09-02T00:57:22.618Z,15.30
2017-09-02T00:59:52.505Z,15.20
2017-09-02T01:02:22.201Z,15.20
2017-09-02T01:04:51.676Z,15.10
2017-09-02T01:07:21.095Z,15.00
2017-09-02T01:09:50.758Z,15.00
2017-09-02T01:12:20.430Z,15.00
2017-09-02T01:14:49.944Z,15.00
2017-09-02T01:17:19.615Z,15.00
2017-09-02T01:19:49.307Z,15.00
2017-09-02T01:22:18.953Z,15.00
2017-09-02T01:24:48.635Z,14.80
2017-09-02T01:27:18.308Z,14.80
2017-09-02T01:29:48.005Z,14.70
2017-09-02T01:32:17.681Z,14.60
2017-09-02T01:34:47.500Z,14.50
2017-09-02T01:37:17.159Z,14.40
2017-09-02T01:39:46.893Z,14.40
2017-09-02T01:42:16.575Z,14.40
2017-09-02T01:44:46.257Z,14.30
2017-09-02T01:47:16.104Z,14.30
2017-09-02T01:49:45.765Z,14.20
2017-09-02T01:52:15.463Z,14.20
2017-09-02T01:54:45.217Z,14.20
2017-09-02T01:57:14.892Z,14.10
2017-09-02T01:59:44.564Z,14.10
2017-09-02T02:02:14.034Z,14.10
2017-09-02T02:04:43.484Z,14.00
2017-09-02T02:07:13.165Z,14.00
2017-09-02T02:09:42.841Z,14.00
2017-09-02T02:12:12.582Z,13.90
2017-09-02T02:14:42.292Z,13.90
2017-09-02T02:17:11.988Z,13.90
2017-09-02T02:19:41.659Z,13.90
2017-09-02T02:22:11.335Z,13.90
2017-09-02T02:24:41.191Z,14.00
2017-09-02T02:27:10.875Z,14.00
2017-09-02T02:29:40.557Z,14.00
2017-09-02T02:32:10.237Z,14.00
2017-09-02T02:34:39.912Z,14.00
2017-09-02T02:37:09.632Z,14.00
2017-09-02T02:39:39.355Z,14.10
2017-09-02T02:42:09.147Z,14.10
2017-09-02T02:44:38.791Z,14.10
2017-09-02T02:47:08.475Z,14.10
2017-09-02T02:49:38.156Z,14.10
2017-09-02T02:52:07.534Z,14.10
2017-09-02T02:54:37.192Z,14.00
2017-09-02T02:57:06.875Z,14.00
2017-09-02T02:59:36.562Z,14.00
2017-09-02T03:02:06.233Z,14.00
2017-09-02T03:04:35.877Z,14.00
2017-09-02T03:07:05.584Z,14.00
2017-09-02T03:09:35.230Z,14.00
2017-09-02T03:12:04.919Z,14.10
2017-09-02T03:14:34.590Z,14.10
2017-09-02T03:17:04.126Z,14.20
2017-09-02T03:19:33.797Z,14.20
2017-09-02T03:22:03.515Z,14.10
2017-09-02T03:24:33.158Z,14.20
2017-09-02T03:27:02.917Z,14.10
2017-09-02T03:29:32.582Z,14.10
2017-09-02T03:32:02.250Z,14.00
2017-09-02T03:34:31.917Z,14.00
2017-09-02T03:37:01.653Z,13.90
2017-09-02T03:39:31.326Z,13.90
2017-09-02T03:42:01.011Z,13.80
2017-09-02T03:44:30.704Z,13.80
2017-09-02T03:47:00.378Z,13.80
2017-09-02T03:49:30.071Z,13.70
2017-09-02T03:52:00.005Z,13.70
2017-09-02T03:54:29.681Z,13.70
2017-09-02T03:56:59.346Z,13.70
2017-09-02T03:59:29.033Z,13.70
2017-09-02T04:01:58.693Z,13.60
2017-09-02T04:04:28.449Z,13.60
2017-09-02T04:06:58.113Z,13.50
2017-09-02T04:09:27.848Z,13.50
2017-09-02T04:11:57.517Z,13.50
2017-09-02T04:14:27.202Z,13.50
2017-09-02T04:16:56.862Z,13.50
2017-09-02T04:19:26.560Z,13.50
2017-09-02T04:21:56.368Z,13.50
2017-09-02T04:24:26.090Z,13.50
2017-09-02T04:26:55.761Z,13.50
2017-09-02T04:29:25.456Z,13.50
2017-09-02T04:31:55.127Z,13.50
2017-09-02T04:34:24.831Z,13.60
2017-09-02T04:36:54.520Z,13.50
2017-09-02T04:39:23.998Z,13.50
2017-09-02T04:41:53.706Z,13.50
2017-09-02T04:44:23.438Z,13.50
2017-09-02T04:46:53.145Z,13.50
2017-09-02T04:49:22.826Z,13.50
2017-09-02T04:51:52.506Z,13.50
2017-09-02T04:54:21.973Z,13.50
2017-09-02T04:56:51.689Z,13.50
2017-09-02T04:59:21.337Z,13.40
2017-09-02T05:01:51.061Z,13.50
2017-09-02T05:04:20.724Z,13.40
2017-09-02T05:06:50.396Z,13.50
2017-09-02T05:09:20.066Z,13.70
2017-09-02T05:11:49.825Z,14.00
2017-09-02T05:14:19.542Z,14.20
2017-09-02T05:16:49.252Z,14.50
2017-09-02T05:19:18.976Z,14.70
2017-09-02T05:21:48.743Z,14.70
2017-09-02T05:24:18.417Z,14.80
2017-09-02T05:26:48.096Z,14.80
2017-09-02T05:29:17.775Z,14.90
2017-09-02T05:31:47.449Z,15.10
2017-09-02T05:34:17.657Z,15.10
2017-09-02T05:36:47.358Z,15.30
2017-09-02T05:39:17.060Z,15.50
2017-09-02T05:41:46.729Z,15.80
2017-09-02T05:44:16.416Z,15.80
2017-09-02T05:46:46.189Z,15.80
2017-09-02T05:49:15.876Z,15.90
2017-09-02T05:51:45.537Z,15.80
2017-09-02T05:54:15.226Z,15.70
2017-09-02T05:56:44.941Z,15.80
2017-09-02T05:59:14.668Z,15.90
2017-09-02T06:01:44.163Z,16.10
2017-09-02T06:04:13.909Z,16.10
2017-09-02T06:06:43.437Z,16.20
2017-09-02T06:09:13.219Z,16.40
2017-09-02T06:11:42.894Z,16.40
2017-09-02T06:14:12.594Z,16.60
2017-09-02T06:16:42.257Z,16.80
2017-09-02T06:19:11.797Z,16.90
2017-09-02T06:21:41.560Z,17.10
2017-09-02T06:24:11.583Z,17.20
2017-09-02T06:26:41.279Z,17.30
2017-09-02T06:29:10.968Z,17.40
2017-09-02T06:31:40.380Z,17.50
2017-09-02T06:34:09.793Z,17.60
2017-09-02T06:36:43.463Z,17.60
2017-09-02T06:39:12.929Z,17.60
2017-09-02T06:41:42.379Z,17.60
2017-09-02T06:44:11.823Z,17.60
2017-09-02T06:46:41.275Z,17.90
2017-09-02T06:49:10.901Z,18.00
2017-09-02T06:51:40.288Z,18.10
2017-09-02T06:54:09.682Z,18.20
2017-09-02T06:56:39.106Z,18.10
2017-09-02T06:59:08.516Z,18.00
2017-09-02T07:01:37.744Z,17.90
2017-09-02T07:04:07.145Z,17.90
2017-09-02T07:06:36.593Z,17.90
2017-09-02T07:09:05.700Z,18.00
2017-09-02T07:11:35.121Z,18.10
2017-09-02T07:14:04.498Z,18.10
2017-09-02T07:16:33.892Z,18.20
2017-09-02T07:19:03.338Z,18.40
2017-09-02T07:21:32.586Z,18.70
2017-09-02T07:24:01.795Z,18.70
2017-09-02T07:26:31.212Z,18.80
2017-09-02T07:29:00.610Z,19.00
2017-09-02T07:31:30.021Z,19.20
2017-09-02T07:33:59.420Z,19.50
2017-09-02T07:36:28.826Z,19.70
2017-09-02T07:38:58.233Z,19.80
2017-09-02T07:41:27.694Z,19.80
2017-09-02T07:43:57.101Z,19.50
2017-09-02T07:46:26.360Z,19.40
2017-09-02T07:48:55.872Z,19.70
2017-09-02T07:51:25.267Z,20.00
2017-09-02T07:53:54.664Z,20.30
2017-09-02T07:56:24.049Z,20.40
2017-09-02T07:58:53.450Z,20.60
2017-09-02T08:01:22.648Z,20.60
2017-09-02T08:03:51.869Z,20.50
2017-09-02T08:06:21.194Z,20.40
2017-09-02T08:08:50.423Z,20.40
2017-09-02T08:11:19.636Z,20.40
2017-09-02T08:13:49.095Z,20.60
2017-09-02T08:16:18.478Z,20.80
2017-09-02T08:18:47.928Z,20.60
2017-09-02T08:21:17.331Z,20.10
2017-09-02T08:23:46.809Z,19.80
2017-09-02T08:26:16.196Z,19.70
2017-09-02T08:28:45.737Z,19.40
2017-09-02T08:31:15.150Z,19.60
2017-09-02T08:33:44.562Z,19.80
2017-09-02T08:36:14.001Z,20.50
2017-09-02T08:38:43.406Z,21.20
2017-09-02T08:41:12.797Z,21.30
2017-09-02T08:43:42.211Z,21.00
2017-09-02T08:46:11.608Z,21.20
2017-09-02T08:48:40.810Z,21.10
2017-09-02T08:51:10.235Z,21.10
2017-09-02T08:53:39.627Z,20.70
2017-09-02T08:56:09.049Z,20.10
2017-09-02T08:58:38.433Z,19.70
2017-09-02T09:01:07.862Z,19.70
2017-09-02T09:03:37.262Z,20.30
2017-09-02T09:06:06.660Z,20.70
2017-09-02T09:08:36.071Z,20.80
2017-09-02T09:11:05.472Z,20.90
2017-09-02T09:13:34.890Z,20.80
2017-09-02T09:16:04.305Z,20.60
2017-09-02T09:18:33.676Z,20.90
2017-09-02T09:21:03.100Z,21.70
2017-09-02T09:23:32.507Z,22.00
2017-09-02T09:26:01.971Z,21.90
2017-09-02T09:28:31.378Z,21.40
2017-09-02T09:31:01.003Z,20.90
2017-09-02T09:33:30.391Z,20.80
2017-09-02T09:35:59.822Z,21.60
2017-09-02T09:38:29.214Z,22.20
2017-09-02T09:40:58.597Z,22.40
2017-09-02T09:43:28.017Z,21.80
2017-09-02T09:45:57.450Z,21.70
2017-09-02T09:48:26.919Z,22.40
2017-09-02T09:50:56.406Z,22.60
2017-09-02T09:53:25.860Z,23.10
2017-09-02T09:55:55.246Z,23.60
2017-09-02T09:58:24.657Z,23.80
2017-09-02T10:00:54.041Z,23.60
2017-09-02T10:03:23.508Z,22.70
2017-09-02T10:05:52.908Z,22.70
2017-09-02T10:08:22.322Z,23.30
2017-09-02T10:10:51.696Z,23.90
2017-09-02T10:13:20.985Z,24.70
2017-09-02T10:15:50.399Z,25.30
2017-09-02T10:18:19.836Z,25.60
2017-09-02T10:20:49.220Z,25.60
2017-09-02T10:23:18.635Z,24.30
2017-09-02T10:25:48.010Z,22.70
2017-09-02T10:28:17.441Z,21.70
2017-09-02T10:30:46.834Z,21.00
2017-09-02T10:33:16.266Z,20.70
2017-09-02T10:35:46.192Z,20.60
2017-09-02T10:38:15.631Z,20.60
2017-09-02T10:40:45.002Z,20.30
2017-09-02T10:43:14.408Z,20.40
2017-09-02T10:45:43.851Z,20.30
2017-09-02T10:48:13.265Z,20.30
2017-09-02T10:50:42.687Z,20.20
2017-09-02T10:53:12.095Z,20.20
2017-09-02T10:55:41.528Z,19.90
2017-09-02T10:58:10.950Z,19.80
2017-09-02T11:00:40.092Z,19.80
2017-09-02T11:03:09.527Z,19.80
2017-09-02T11:05:38.936Z,19.80
2017-09-02T11:08:08.397Z,19.80
2017-09-02T11:10:37.684Z,19.90
2017-09-02T11:13:07.074Z,20.00
2017-09-02T11:15:36.616Z,19.90
2017-09-02T11:18:06.017Z,20.10
2017-09-02T11:20:35.405Z,20.40
2017-09-02T11:23:04.946Z,20.80
2017-09-02T11:25:34.348Z,21.00
2017-09-02T11:28:03.724Z,21.20
2017-09-02T11:30:33.123Z,21.30
2017-09-02T11:33:02.553Z,21.40
2017-09-02T11:35:31.978Z,21.60
2017-09-02T11:38:01.372Z,21.70
2017-09-02T11:40:30.807Z,21.80
2017-09-02T11:43:00.186Z,21.70
2017-09-02T11:45:30.347Z,22.00
2017-09-02T11:47:59.743Z,22.00
2017-09-02T11:50:29.164Z,22.10
2017-09-02T11:52:58.357Z,22.10
2017-09-02T11:55:27.752Z,22.20
2017-09-02T11:57:57.171Z,22.60
2017-09-02T12:00:26.383Z,22.90
2017-09-02T12:02:55.774Z,22.70
2017-09-02T12:05:25.194Z,22.20
2017-09-02T12:07:55.328Z,21.90
2017-09-02T12:10:24.740Z,21.60
2017-09-02T12:12:54.159Z,21.30
2017-09-02T12:15:23.585Z,21.10
2017-09-02T12:17:52.999Z,21.40
2017-09-02T12:20:22.728Z,21.50
2017-09-02T12:22:51.999Z,21.50
2017-09-02T12:25:21.170Z,21.50
2017-09-02T12:27:50.396Z,21.30
2017-09-02T12:30:19.725Z,21.30
2017-09-02T12:32:48.933Z,21.40
2017-09-02T12:35:18.153Z,21.40
2017-09-02T12:37:47.380Z,21.60
2017-09-02T12:40:16.253Z,21.40
2017-09-02T12:42:45.465Z,21.60
2017-09-02T12:45:14.316Z,22.00
2017-09-02T12:47:43.557Z,22.30
2017-09-02T12:50:12.732Z,22.30
2017-09-02T12:52:41.956Z,22.30
2017-09-02T12:55:10.985Z,22.30
2017-09-02T12:57:40.295Z,22.40
2017-09-02T13:00:09.150Z,22.70
2017-09-02T13:02:38.387Z,22.70
2017-09-02T13:05:06.892Z,23.90
2017-09-02T13:07:36.113Z,26.00
2017-09-02T13:10:05.346Z,28.50
2017-09-02T13:12:34.573Z,29.00
2017-09-02T13:15:03.762Z,28.10
2017-09-02T13:17:32.986Z,26.50
2017-09-02T13:20:02.203Z,24.50
2017-09-02T13:22:31.478Z,23.80
2017-09-02T13:25:00.672Z,22.90
2017-09-02T13:27:29.979Z,22.30
2017-09-02T13:29:59.013Z,22.20
2017-09-02T13:32:28.224Z,22.30
2017-09-02T13:34:57.412Z,22.40
2017-09-02T13:37:26.622Z,22.40
2017-09-02T13:39:55.824Z,22.70
2017-09-02T13:42:25.045Z,22.90
2017-09-02T13:44:54.265Z,23.30
2017-09-02T13:47:23.453Z,23.60
2017-09-02T13:49:52.675Z,23.60
2017-09-02T13:52:21.878Z,23.20
2017-09-02T13:54:51.065Z,23.30
2017-09-02T13:57:20.279Z,23.10
2017-09-02T13:59:49.491Z,23.40
2017-09-02T14:02:18.702Z,24.70
2017-09-02T14:04:47.893Z,25.50
2017-09-02T14:07:17.119Z,26.80
2017-09-02T14:09:46.835Z,27.30
2017-09-02T14:12:15.843Z,27.60
2017-09-02T14:14:45.086Z,28.30
2017-09-02T14:17:14.276Z,28.70
2017-09-02T14:19:43.476Z,28.00
2017-09-02T14:22:12.669Z,27.30
2017-09-02T14:24:41.696Z,25.30
2017-09-02T14:27:10.874Z,24.20
2017-09-02T14:29:40.082Z,24.00
2017-09-02T14:32:09.295Z,24.50
2017-09-02T14:34:38.517Z,24.80
2017-09-02T14:37:07.715Z,24.70
2017-09-02T14:39:36.938Z,24.10
2017-09-02T14:42:06.155Z,24.00
2017-09-02T14:44:35.355Z,24.70
2017-09-02T14:47:04.689Z,24.70
2017-09-02T14:49:33.913Z,24.80
2017-09-02T14:52:03.123Z,25.50
2017-09-02T14:54:32.331Z,25.50
2017-09-02T14:57:01.527Z,25.80
2017-09-02T14:59:30.721Z,26.00
2017-09-02T15:01:59.935Z,25.40
2017-09-02T15:04:29.157Z,24.30
2017-09-02T15:06:58.353Z,23.70
2017-09-02T15:09:27.569Z,23.40
2017-09-02T15:11:56.757Z,23.50
2017-09-02T15:14:25.941Z,23.50
2017-09-02T15:16:55.135Z,23.70
2017-09-02T15:19:24.337Z,23.70
2017-09-02T15:21:53.585Z,22.80
2017-09-02T15:24:22.785Z,21.70
2017-09-02T15:26:52.009Z,21.30
2017-09-02T15:29:21.235Z,21.00
2017-09-02T15:31:50.721Z,20.90
2017-09-02T15:34:19.892Z,20.90
2017-09-02T15:36:49.879Z,20.60
2017-09-02T15:39:19.093Z,20.60
2017-09-02T15:41:48.302Z,20.50
2017-09-02T15:44:17.505Z,20.30
2017-09-02T15:46:46.533Z,20.20
2017-09-02T15:49:15.740Z,20.10
2017-09-02T15:51:44.967Z,20.00
2017-09-02T15:54:14.162Z,20.00
2017-09-02T15:56:43.525Z,19.80
2017-09-02T15:59:12.515Z,19.60
2017-09-02T16:01:41.711Z,19.60
2017-09-02T16:04:10.985Z,19.40
2017-09-02T16:06:39.847Z,19.40
2017-09-02T16:09:09.053Z,19.40
2017-09-02T16:11:38.249Z,19.30
2017-09-02T16:14:07.439Z,19.50
2017-09-02T16:16:36.667Z,19.50
2017-09-02T16:19:06.669Z,19.50
2017-09-02T16:21:35.887Z,19.50
2017-09-02T16:24:05.088Z,19.50
2017-09-02T16:26:34.317Z,19.50
2017-09-02T16:29:03.516Z,19.30
2017-09-02T16:31:32.754Z,19.20
2017-09-02T16:34:02.137Z,19.20
2017-09-02T16:36:31.327Z,19.10
2017-09-02T16:39:00.564Z,19.20
2017-09-02T16:41:29.780Z,19.30
2017-09-02T16:43:59.004Z,19.30
2017-09-02T16:46:28.215Z,19.30
2017-09-02T16:48:57.242Z,19.30
2017-09-02T16:51:26.241Z,19.30
2017-09-02T16:53:55.252Z,19.30
2017-09-02T16:56:24.278Z,19.20
2017-09-02T16:58:53.309Z,19.20
2017-09-02T17:01:22.293Z,19.10
2017-09-02T17:03:51.316Z,19.10
2017-09-02T17:06:20.337Z,19.00
2017-09-02T17:08:49.385Z,18.90
2017-09-02T17:11:18.439Z,18.80
2017-09-02T17:13:47.480Z,18.90
2017-09-02T17:16:16.482Z,18.80
2017-09-02T17:18:45.573Z,18.90
2017-09-02T17:21:14.571Z,18.90
2017-09-02T17:23:43.648Z,19.00
2017-09-02T17:26:12.701Z,19.10
2017-09-02T17:28:41.956Z,19.00
2017-09-02T17:31:11.115Z,18.90
2017-09-02T17:33:40.314Z,18.90
2017-09-02T17:36:09.540Z,18.90
2017-09-02T17:38:38.745Z,18.80
2017-09-02T17:41:08.030Z,18.90
2017-09-02T17:43:37.247Z,18.90
2017-09-02T17:46:06.423Z,18.90
2017-09-02T17:48:35.660Z,18.80
2017-09-02T17:51:04.941Z,18.80
2017-09-02T17:53:34.135Z,18.70
2017-09-02T17:56:03.593Z,18.70
2017-09-02T17:58:33.338Z,18.60
2017-09-02T18:01:02.378Z,18.50
2017-09-02T18:03:31.551Z,18.50
2017-09-02T18:06:00.779Z,18.50
2017-09-02T18:08:29.991Z,18.50
2017-09-02T18:10:59.236Z,18.50
2017-09-02T18:13:28.443Z,18.40
2017-09-02T18:15:57.302Z,18.50
2017-09-02T18:18:26.498Z,18.40
2017-09-02T18:20:55.706Z,18.30
2017-09-02T18:23:24.919Z,18.30
2017-09-02T18:25:54.142Z,18.30
2017-09-02T18:28:23.320Z,18.20
2017-09-02T18:30:52.539Z,18.20
2017-09-02T18:33:21.738Z,18.10
2017-09-02T18:35:50.965Z,18.10
2017-09-02T18:38:20.189Z,18.00
2017-09-02T18:40:49.684Z,18.00
2017-09-02T18:43:18.882Z,17.90
2017-09-02T18:45:48.174Z,17.80
2017-09-02T18:48:17.392Z,17.70
2017-09-02T18:50:46.389Z,17.80
2017-09-02T18:53:15.426Z,17.70
2017-09-02T18:55:44.635Z,17.70
2017-09-02T18:58:13.876Z,17.60
2017-09-02T19:00:43.076Z,17.60
2017-09-02T19:03:12.577Z,17.50
2017-09-02T19:05:41.592Z,17.50
2017-09-02T19:08:11.118Z,17.40
2017-09-02T19:10:40.399Z,17.40
2017-09-02T19:13:09.631Z,17.30
2017-09-02T19:15:39.118Z,17.20
2017-09-02T19:18:08.709Z,17.20
2017-09-02T19:20:37.997Z,17.10
2017-09-02T19:23:07.307Z,17.10
2017-09-02T19:25:36.765Z,17.10
2017-09-02T19:28:06.243Z,17.10
2017-09-02T19:30:35.770Z,17.10
2017-09-02T19:33:05.242Z,17.00
2017-09-02T19:35:34.703Z,17.00
2017-09-02T19:38:04.190Z,17.00
2017-09-02T19:40:33.660Z,16.90
2017-09-02T19:43:03.146Z,16.90
2017-09-02T19:45:32.603Z,16.90
2017-09-02T19:48:02.087Z,16.90
2017-09-02T19:50:31.561Z,16.80
2017-09-02T19:53:01.058Z,16.80
2017-09-02T19:55:30.569Z,16.80
2017-09-02T19:58:00.089Z,16.80
2017-09-02T20:00:29.584Z,16.70
2017-09-02T20:02:59.250Z,16.70
2017-09-02T20:05:28.926Z,16.60
2017-09-02T20:07:58.600Z,16.60
2017-09-02T20:10:28.277Z,16.60
2017-09-02T20:12:57.968Z,16.60
2017-09-02T20:15:27.286Z,16.50
2017-09-02T20:17:56.996Z,16.40
2017-09-02T20:20:26.672Z,16.40
2017-09-02T20:22:56.322Z,16.40
2017-09-02T20:25:26.039Z,16.30
2017-09-02T20:27:55.721Z,16.30
2017-09-02T20:30:26.188Z,16.20
2017-09-02T20:32:55.867Z,16.20
2017-09-02T20:35:25.551Z,16.10
2017-09-02T20:37:55.213Z,16.10
2017-09-02T20:40:24.734Z,16.00
2017-09-02T20:42:54.413Z,16.00
2017-09-02T20:45:24.118Z,16.10
2017-09-02T20:47:53.803Z,16.00
2017-09-02T20:50:23.486Z,16.00
2017-09-02T20:52:53.155Z,15.90
2017-09-02T20:55:22.897Z,15.90
2017-09-02T20:57:52.641Z,15.90
2017-09-02T21:00:22.310Z,15.90
2017-09-02T21:02:51.985Z,15.80
2017-09-02T21:05:21.692Z,15.80
2017-09-02T21:07:51.349Z,15.70
2017-09-02T21:10:21.046Z,15.60
2017-09-02T21:12:50.730Z,15.50
2017-09-02T21:15:20.221Z,15.50
2017-09-02T21:17:49.940Z,15.50
2017-09-02T21:20:19.632Z,15.50
2017-09-02T21:22:49.332Z,15.50
2017-09-02T21:25:19.039Z,15.50
2017-09-02T21:27:48.735Z,15.50
2017-09-02T21:30:18.437Z,15.50
2017-09-02T21:32:48.117Z,15.50
2017-09-02T21:35:17.814Z,15.50
2017-09-02T21:37:47.482Z,15.40
2017-09-02T21:40:17.170Z,15.40
2017-09-02T21:42:46.869Z,15.30
2017-09-02T21:45:16.529Z,15.20
2017-09-02T21:47:46.240Z,15.20
2017-09-02T21:50:15.887Z,15.20
2017-09-02T21:52:45.559Z,15.20
2017-09-02T21:55:15.205Z,15.20
2017-09-02T21:57:44.872Z,15.10
2017-09-02T22:00:13.845Z,15.10
2017-09-02T22:02:43.327Z,15.00
2017-09-02T22:05:12.986Z,15.00
2017-09-02T22:07:42.666Z,15.00
2017-09-02T22:10:12.329Z,14.90
2017-09-02T22:12:42.016Z,14.80
2017-09-02T22:15:11.677Z,14.90
2017-09-02T22:17:41.399Z,14.90
2017-09-02T22:20:11.305Z,14.90
2017-09-02T22:22:40.997Z,14.90
2017-09-02T22:25:10.703Z,14.80
2017-09-02T22:27:40.385Z,14.70
2017-09-02T22:30:10.067Z,14.70
2017-09-02T22:32:39.812Z,14.70
2017-09-02T22:35:09.479Z,14.70
2017-09-02T22:37:39.165Z,14.70
2017-09-02T22:40:09.542Z,14.60
2017-09-02T22:42:39.250Z,14.60
2017-09-02T22:45:08.915Z,14.60
2017-09-02T22:47:38.890Z,14.60
2017-09-02T22:50:08.563Z,14.60
2017-09-02T22:52:38.248Z,14.60
2017-09-02T22:55:07.960Z,14.70
2017-09-02T22:57:37.686Z,14.70
2017-09-02T23:00:07.341Z,14.70
2017-09-02T23:02:36.837Z,14.70
2017-09-02T23:05:06.494Z,14.60
2017-09-02T23:07:36.197Z,14.60
2017-09-02T23:10:05.861Z,14.60
2017-09-02T23:12:35.633Z,14.50
2017-09-02T23:15:05.296Z,14.50
2017-09-02T23:17:34.976Z,14.50
2017-09-02T23:20:04.335Z,14.50
2017-09-02T23:22:33.780Z,14.40
2017-09-02T23:25:03.340Z,14.40
2017-09-02T23:27:34.377Z,14.30
2017-09-02T23:30:04.033Z,14.30
2017-09-02T23:32:33.500Z,14.30
2017-09-02T23:35:02.969Z,14.20
2017-09-02T23:37:32.512Z,14.20
2017-09-02T23:40:02.171Z,14.30
2017-09-02T23:42:31.838Z,14.20
2017-09-02T23:45:01.512Z,14.30
2017-09-02T23:47:31.204Z,14.30
2017-09-02T23:50:00.954Z,14.20
2017-09-02T23:52:30.640Z,14.20
2017-09-02T23:55:00.574Z,14.20
2017-09-02T23:57:30.274Z,14.20
2017-09-02T23:59:59.976Z,14.10
